Time;durP1;ratioP1;P1;durP2;ratioP2;P2;SDS_P1;SDS_P2;PMS_P1;PMS_P2;Temp;Humidity;BMP_temperature;BMP_pressure;BME280_temperature;BME280_humidity;BME280_pressure;Samples;Min_cycle;Max_cycle;Signal;HPM_P1;HPM_P2
2021/06/29 00:02:18;;;;;;;5.18;3.92;;;22.10;63.40;;;;;;5075504;28;20032;-40
2021/06/29 00:04:43;;;;;;;6.00;4.20;;;22.00;63.40;;;;;;5075672;28;20358;-39
2021/06/29 00:07:09;;;;;;;5.53;3.75;;;22.00;63.60;;;;;;5075356;28;20035;-41
2021/06/29 00:09:35;;;;;;;6.25;3.70;;;22.00;63.70;;;;;;5075506;28;20072;-40
2021/06/29 00:12:01;;;;;;;5.60;4.00;;;22.00;63.80;;;;;;5075257;28;20033;-39
2021/06/29 00:14:28;;;;;;;8.25;4.05;;;21.90;63.90;;;;;;5075748;28;20317;-39
2021/06/29 00:16:54;;;;;;;6.05;4.28;;;21.90;64.10;;;;;;5075513;28;20407;-39
2021/06/29 00:19:20;;;;;;;5.78;4.05;;;21.90;64.30;;;;;;5075119;28;20053;-40
2021/06/29 00:21:47;;;;;;;8.85;4.40;;;21.80;64.30;;;;;;5075267;28;20336;-40
2021/06/29 00:24:13;;;;;;;5.40;4.50;;;21.80;64.50;;;;;;5075222;28;20107;-40
2021/06/29 00:26:38;;;;;;;6.30;4.50;;;21.70;64.50;;;;;;5075017;28;20072;-41
2021/06/29 00:29:04;;;;;;;8.20;4.28;;;21.70;64.70;;;;;;5077383;28;20257;-40
2021/06/29 00:31:30;;;;;;;6.30;4.40;;;21.60;64.70;;;;;;5079256;28;20036;-41
2021/06/29 00:33:55;;;;;;;7.72;4.03;;;21.60;64.70;;;;;;5078906;28;20035;-40
2021/06/29 00:36:21;;;;;;;6.32;4.63;;;21.60;64.90;;;;;;5079264;28;20042;-39
2021/06/29 00:38:47;;;;;;;5.43;4.32;;;21.50;64.90;;;;;;5078669;28;20075;-39
2021/06/29 00:41:13;;;;;;;9.55;4.20;;;21.50;64.90;;;;;;5079067;28;20482;-41
2021/06/29 00:43:45;;;;;;;5.18;4.10;;;21.50;65.00;;;;;;5078896;28;20134;-40
2021/06/29 00:46:11;;;;;;;7.95;4.28;;;21.50;65.10;;;;;;5078982;28;20032;-40
2021/06/29 00:48:37;;;;;;;15.20;4.80;;;21.50;65.10;;;;;;5078805;28;20032;-39
2021/06/29 00:51:02;;;;;;;5.95;4.13;;;21.50;65.20;;;;;;5079451;28;20081;-40
2021/06/29 00:53:28;;;;;;;9.40;4.72;;;21.50;65.20;;;;;;5078190;28;20416;-40
2021/06/29 00:55:54;;;;;;;6.47;4.40;;;21.50;65.30;;;;;;5079253;28;20056;-41
2021/06/29 00:58:20;;;;;;;7.28;4.38;;;21.50;65.30;;;;;;5078561;28;20040;-40
2021/06/29 01:00:46;;;;;;;5.07;4.25;;;21.40;65.30;;;;;;5079015;28;20098;-39
2021/06/29 01:03:12;;;;;;;13.13;4.55;;;21.40;65.20;;;;;;5078936;28;20059;-39
2021/06/29 01:05:37;;;;;;;5.72;4.20;;;21.40;65.30;;;;;;5078956;28;20103;-39
2021/06/29 01:08:04;;;;;;;7.95;4.60;;;21.40;65.30;;;;;;5078199;28;20059;-39
2021/06/29 01:10:29;;;;;;;6.93;4.18;;;21.40;65.40;;;;;;5078618;28;20071;-40
2021/06/29 01:12:55;;;;;;;8.27;4.07;;;21.40;65.40;;;;;;5078333;28;20044;-39
2021/06/29 01:15:25;;;;;;;5.47;4.40;;;21.40;65.40;;;;;;5078846;28;20031;-39
2021/06/29 01:17:56;;;;;;;6.82;5.05;;;21.40;65.40;;;;;;5078526;28;20044;-40
2021/06/29 01:20:28;;;;;;;5.13;4.28;;;21.40;65.50;;;;;;5078607;28;20075;-40
2021/06/29 01:23:08;;;;;;;5.53;4.28;;;21.40;65.60;;;;;;5077983;28;20051;-39
2021/06/29 01:25:34;;;;;;;6.95;4.15;;;21.40;65.50;;;;;;5078740;28;20413;-38
2021/06/29 01:31:03;;;;;;;7.82;4.60;;;21.30;65.60;;;;;;5077486;28;20049;-40
2021/06/29 01:33:29;;;;;;;7.38;4.47;;;21.30;65.60;;;;;;5077562;28;20086;-41
2021/06/29 01:35:55;;;;;;;5.78;4.38;;;21.30;65.60;;;;;;5078638;28;20235;-39
2021/06/29 01:38:22;;;;;;;6.10;4.55;;;21.30;65.60;;;;;;5077501;28;20076;-38
2021/06/29 01:40:50;;;;;;;9.25;4.45;;;21.30;65.50;;;;;;5076882;28;20036;-40
2021/06/29 01:43:20;;;;;;;8.25;4.85;;;21.30;65.60;;;;;;5077860;28;20048;-40
2021/06/29 01:45:48;;;;;;;7.40;4.65;;;21.30;65.60;;;;;;5078487;28;20183;-39
2021/06/29 01:48:21;;;;;;;4.45;4.00;;;21.30;65.70;;;;;;5077821;28;20036;-40
2021/06/29 01:50:47;;;;;;;5.95;4.25;;;21.30;65.70;;;;;;5078249;28;20037;-40
2021/06/29 01:53:13;;;;;;;6.35;4.30;;;21.30;65.70;;;;;;5077718;28;20029;-41
2021/06/29 01:55:38;;;;;;;6.30;4.25;;;21.30;65.70;;;;;;5078039;28;20423;-39
2021/06/29 01:58:04;;;;;;;6.93;4.07;;;21.30;65.70;;;;;;5077336;28;20028;-40
2021/06/29 02:00:30;;;;;;;6.18;4.43;;;21.30;65.80;;;;;;5077956;28;20024;-40
2021/06/29 02:02:56;;;;;;;8.10;4.25;;;21.20;65.80;;;;;;5077152;28;20068;-39
2021/06/29 02:05:21;;;;;;;7.60;4.82;;;21.30;65.90;;;;;;5077820;28;20033;-39
2021/06/29 02:07:47;;;;;;;7.07;4.50;;;21.30;65.80;;;;;;5077444;28;20020;-40
2021/06/29 02:10:14;;;;;;;9.88;4.68;;;21.30;65.90;;;;;;5077779;28;20416;-39
2021/06/29 02:12:40;;;;;;;6.05;4.63;;;21.30;65.90;;;;;;5077326;28;20037;-40
2021/06/29 02:15:06;;;;;;;5.47;4.47;;;21.30;66.00;;;;;;5077606;28;20099;-41
2021/06/29 02:17:33;;;;;;;6.80;4.47;;;21.20;66.00;;;;;;5077136;28;20115;-39
2021/06/29 02:19:58;;;;;;;5.32;4.13;;;21.30;66.10;;;;;;5077362;28;20028;-40
2021/06/29 02:22:24;;;;;;;5.82;3.83;;;21.20;66.00;;;;;;5076880;28;20432;-40
2021/06/29 02:24:50;;;;;;;8.57;4.65;;;21.30;66.10;;;;;;5077493;28;20033;-39
2021/06/29 02:27:15;;;;;;;7.95;4.72;;;21.30;66.10;;;;;;5076988;28;20036;-39
2021/06/29 02:29:41;;;;;;;7.00;4.00;;;21.20;66.00;;;;;;5077327;28;20032;-40
2021/06/29 02:32:07;;;;;;;6.45;4.53;;;21.20;66.10;;;;;;5076780;28;20086;-40
2021/06/29 02:34:33;;;;;;;6.85;4.70;;;21.20;66.10;;;;;;5077044;28;20028;-39
2021/06/29 02:36:58;;;;;;;6.18;3.97;;;21.30;66.30;;;;;;5076867;28;20036;-39
2021/06/29 02:39:24;;;;;;;6.70;4.72;;;21.30;66.40;;;;;;5076533;28;20336;-40
2021/06/29 02:41:50;;;;;;;6.82;4.53;;;21.30;66.30;;;;;;5076507;28;20032;-38
2021/06/29 02:44:15;;;;;;;7.90;4.38;;;21.30;66.40;;;;;;5076813;28;20037;-40
2021/06/29 02:46:41;;;;;;;10.65;4.57;;;21.30;66.40;;;;;;5076874;28;20043;-39
2021/06/29 02:49:07;;;;;;;7.53;4.60;;;21.40;66.40;;;;;;5076590;28;20024;-39
2021/06/29 02:51:35;;;;;;;5.95;4.38;;;21.40;66.40;;;;;;5076656;28;20324;-39
2021/06/29 02:54:00;;;;;;;7.95;4.28;;;21.40;66.40;;;;;;5076500;28;20074;-40
2021/06/29 02:56:41;;;;;;;6.60;5.00;;;21.40;66.40;;;;;;5076885;28;20354;-40
2021/06/29 02:59:12;;;;;;;6.60;4.65;;;21.50;66.30;;;;;;5076484;28;20424;-40
2021/06/29 03:01:39;;;;;;;6.03;4.55;;;21.50;66.30;;;;;;5076490;28;20119;-39
2021/06/29 03:04:05;;;;;;;6.55;4.05;;;21.50;66.30;;;;;;5076389;28;20029;-40
2021/06/29 03:06:32;;;;;;;7.93;4.78;;;21.50;66.30;;;;;;5076644;28;20028;-40
2021/06/29 03:08:59;;;;;;;7.43;5.22;;;21.60;66.20;;;;;;5076040;28;20016;-39
2021/06/29 03:11:24;;;;;;;5.60;4.28;;;21.60;66.20;;;;;;5076477;28;20420;-40
2021/06/29 03:13:50;;;;;;;8.48;4.72;;;21.60;66.20;;;;;;5076142;28;20039;-39
2021/06/29 03:16:16;;;;;;;6.20;4.70;;;21.60;66.30;;;;;;5076429;28;20060;-38
2021/06/29 03:18:41;;;;;;;6.18;4.50;;;21.60;66.20;;;;;;5075555;28;20028;-38
2021/06/29 03:21:07;;;;;;;7.75;4.22;;;21.70;66.30;;;;;;5076230;28;20040;-39
2021/06/29 03:23:34;;;;;;;7.05;4.65;;;21.70;66.20;;;;;;5075765;28;20020;-39
2021/06/29 03:26:00;;;;;;;7.78;4.88;;;21.80;66.10;;;;;;5076522;28;20100;-39
2021/06/29 03:28:26;;;;;;;9.63;4.55;;;21.80;66.10;;;;;;5075587;28;20103;-41
2021/06/29 03:30:51;;;;;;;7.70;4.82;;;21.90;66.20;;;;;;5076436;28;20416;-38
2021/06/29 03:33:17;;;;;;;8.23;4.40;;;21.90;66.20;;;;;;5075168;28;20412;-39
2021/06/29 03:35:43;;;;;;;11.07;5.13;;;21.90;66.00;;;;;;5075660;28;20328;-39
2021/06/29 03:38:09;;;;;;;4.97;4.32;;;22.00;66.00;;;;;;5075246;28;20433;-39
2021/06/29 03:40:34;;;;;;;5.85;4.40;;;22.00;65.90;;;;;;5075970;28;20067;-40
2021/06/29 03:43:00;;;;;;;7.63;5.13;;;22.00;65.90;;;;;;5075379;28;20112;-40
2021/06/29 03:45:26;;;;;;;6.47;5.15;;;22.00;65.80;;;;;;5076042;28;20059;-40
2021/06/29 03:47:51;;;;;;;9.27;4.95;;;22.00;65.90;;;;;;5075329;28;20036;-40
2021/06/29 03:50:17;;;;;;;8.48;4.78;;;22.00;65.70;;;;;;5075959;28;20029;-39
2021/06/29 03:52:43;;;;;;;5.50;4.35;;;22.00;65.80;;;;;;5075400;28;20028;-39
2021/06/29 03:55:09;;;;;;;6.53;5.00;;;22.00;65.90;;;;;;5075773;28;20106;-40
2021/06/29 03:57:34;;;;;;;6.85;4.72;;;22.10;66.00;;;;;;5075282;28;20139;-38
2021/06/29 04:00:00;;;;;;;7.63;5.22;;;22.10;65.90;;;;;;5075610;28;20128;-41
2021/06/29 04:02:27;;;;;;;8.15;5.20;;;22.20;66.00;;;;;;5075074;28;20032;-40
2021/06/29 04:04:55;;;;;;;6.78;5.20;;;22.20;66.10;;;;;;5075584;28;20033;-39
2021/06/29 04:07:21;;;;;;;6.30;5.13;;;22.20;66.10;;;;;;5075347;28;20033;-39
2021/06/29 04:09:47;;;;;;;5.57;4.55;;;22.30;66.20;;;;;;5075820;28;20367;-39
2021/06/29 04:12:14;;;;;;;5.00;4.50;;;22.40;66.00;;;;;;5075356;28;20037;-40
2021/06/29 04:14:40;;;;;;;8.77;5.25;;;22.50;65.80;;;;;;5075490;28;20048;-40
2021/06/29 04:17:05;;;;;;;9.70;5.00;;;22.50;65.60;;;;;;5075294;28;20051;-40
2021/06/29 04:19:31;;;;;;;8.07;4.97;;;22.50;65.70;;;;;;5075085;28;20290;-39
2021/06/29 04:21:57;;;;;;;7.93;4.80;;;22.60;65.90;;;;;;5075258;28;20024;-40
2021/06/29 04:24:22;;;;;;;7.10;5.03;;;22.70;65.60;;;;;;5075462;28;20025;-39
2021/06/29 04:26:48;;;;;;;7.68;4.85;;;22.80;65.70;;;;;;5075324;28;20028;-38
2021/06/29 04:29:14;;;;;;;9.40;4.95;;;22.90;65.30;;;;;;5075128;28;20056;-38
2021/06/29 04:31:39;;;;;;;6.72;5.03;;;22.90;65.20;;;;;;5075247;28;20031;-41
2021/06/29 04:34:05;;;;;;;7.22;4.93;;;23.10;65.30;;;;;;5074962;28;20028;-39
2021/06/29 04:36:31;;;;;;;5.65;4.60;;;23.10;65.30;;;;;;5075075;28;20020;-40
2021/06/29 04:38:57;;;;;;;14.75;5.90;;;23.20;65.00;;;;;;5074666;28;20059;-38
2021/06/29 04:41:22;;;;;;;11.27;5.30;;;23.30;64.70;;;;;;5075248;28;20044;-41
2021/06/29 04:43:48;;;;;;;13.07;5.97;;;23.30;64.30;;;;;;5074669;28;20020;-39
2021/06/29 04:46:14;;;;;;;10.68;5.55;;;23.40;64.40;;;;;;5075053;28;20147;-40
2021/06/29 04:48:41;;;;;;;8.40;4.90;;;23.40;64.50;;;;;;5074427;28;20024;-39
2021/06/29 04:51:07;;;;;;;9.77;5.68;;;23.40;64.40;;;;;;5074863;28;20079;-39
2021/06/29 04:53:33;;;;;;;6.65;5.18;;;23.50;64.50;;;;;;5074368;28;20064;-38
2021/06/29 04:55:59;;;;;;;8.70;4.88;;;23.60;64.60;;;;;;5074667;28;20059;-38
2021/06/29 04:58:24;;;;;;;7.28;5.10;;;23.60;65.10;;;;;;5074617;28;20039;-38
2021/06/29 05:00:50;;;;;;;9.63;5.28;;;23.70;64.50;;;;;;5074387;28;20040;-39
2021/06/29 05:03:17;;;;;;;8.10;4.57;;;23.80;64.10;;;;;;5074654;28;20182;-38
2021/06/29 05:05:43;;;;;;;6.00;4.53;;;23.90;64.60;;;;;;5074602;28;20036;-38
2021/06/29 05:08:11;;;;;;;10.43;6.05;;;23.90;64.40;;;;;;5074443;28;20112;-40
2021/06/29 05:10:37;;;;;;;8.43;5.55;;;24.10;64.30;;;;;;5075071;28;20021;-38
2021/06/29 05:13:03;;;;;;;7.53;5.82;;;24.10;63.60;;;;;;5074805;28;20036;-40
2021/06/29 05:15:29;;;;;;;12.10;5.90;;;24.20;63.80;;;;;;5076292;28;20020;-40
2021/06/29 05:17:55;;;;;;;6.18;4.95;;;24.30;63.20;;;;;;5077935;28;20371;-40
2021/06/29 05:20:21;;;;;;;8.43;5.20;;;24.40;63.00;;;;;;5078361;28;20310;-39
2021/06/29 05:22:47;;;;;;;8.65;5.40;;;24.50;62.60;;;;;;5077619;28;20035;-40
2021/06/29 05:25:13;;;;;;;13.30;5.80;;;24.50;61.70;;;;;;5078628;28;20021;-38
2021/06/29 05:27:42;;;;;;;7.00;5.10;;;24.60;61.60;;;;;;5077726;28;20401;-39
2021/06/29 05:30:09;;;;;;;12.73;5.43;;;24.60;61.90;;;;;;5078354;28;20059;-38
2021/06/29 05:32:35;;;;;;;7.40;5.88;;;24.60;61.40;;;;;;5077748;28;20028;-38
2021/06/29 05:35:01;;;;;;;9.07;5.28;;;24.60;61.30;;;;;;5078100;28;20038;-40
2021/06/29 05:37:27;;;;;;;12.52;6.05;;;24.60;61.00;;;;;;5077215;28;20036;-40
2021/06/29 05:39:53;;;;;;;10.00;5.20;;;24.60;61.40;;;;;;5077677;28;20033;-40
2021/06/29 05:42:18;;;;;;;6.68;5.25;;;24.60;61.20;;;;;;5077603;28;20312;-39
2021/06/29 05:44:44;;;;;;;5.70;4.72;;;24.60;61.60;;;;;;5077902;28;20021;-38
2021/06/29 05:47:15;;;;;;;8.35;4.97;;;24.60;61.90;;;;;;5077402;28;20036;-39
2021/06/29 05:49:41;;;;;;;7.00;5.07;;;24.60;62.00;;;;;;5077444;28;20413;-41
2021/06/29 05:52:06;;;;;;;8.00;4.75;;;24.60;62.10;;;;;;5077366;28;20040;-40
2021/06/29 05:54:32;;;;;;;10.50;6.40;;;24.60;62.30;;;;;;5077764;28;20128;-39
2021/06/29 05:56:58;;;;;;;6.40;5.40;;;24.70;61.90;;;;;;5077268;28;20134;-39
2021/06/29 05:59:23;;;;;;;10.50;7.90;;;24.70;62.00;;;;;;5077295;28;20337;-39
2021/06/29 06:01:51;;;;;;;9.27;5.78;;;24.60;61.90;;;;;;5077356;28;20412;-40
2021/06/29 06:04:17;;;;;;;7.15;5.30;;;24.70;61.80;;;;;;5077094;28;20110;-40
2021/06/29 06:06:42;;;;;;;7.82;5.57;;;24.60;62.10;;;;;;5077269;28;20072;-40
2021/06/29 06:09:08;;;;;;;9.07;6.03;;;24.70;62.10;;;;;;5077241;28;20023;-40
2021/06/29 06:11:34;;;;;;;8.10;5.68;;;24.70;62.40;;;;;;5077020;28;20036;-40
2021/06/29 06:13:59;;;;;;;13.02;5.72;;;24.70;62.60;;;;;;5076789;28;20046;-39
2021/06/29 06:16:25;;;;;;;10.25;5.63;;;24.80;62.40;;;;;;5077328;28;20043;-40
2021/06/29 06:18:51;;;;;;;11.48;7.35;;;24.80;62.70;;;;;;5076463;28;20132;-40
2021/06/29 06:21:16;;;;;;;11.13;8.25;;;24.90;62.60;;;;;;5076879;28;20041;-40
2021/06/29 06:23:42;;;;;;;11.85;6.68;;;24.90;62.60;;;;;;5076373;28;20035;-38
2021/06/29 06:26:08;;;;;;;10.75;6.20;;;25.00;62.30;;;;;;5076232;28;20033;-38
2021/06/29 06:28:34;;;;;;;12.13;8.13;;;25.10;62.40;;;;;;5076099;28;20025;-38
2021/06/29 06:30:59;;;;;;;10.15;7.97;;;25.10;62.30;;;;;;5077191;28;20028;-38
2021/06/29 06:33:25;;;;;;;12.02;7.28;;;25.20;62.30;;;;;;5076581;28;20036;-38
2021/06/29 06:35:50;;;;;;;9.27;7.20;;;25.30;62.30;;;;;;5077148;28;20465;-40
2021/06/29 06:38:16;;;;;;;11.18;7.38;;;25.30;62.10;;;;;;5076501;28;20052;-40
2021/06/29 06:40:42;;;;;;;13.60;8.80;;;25.40;62.10;;;;;;5076872;28;20036;-40
2021/06/29 06:43:08;;;;;;;14.35;7.30;;;25.40;62.10;;;;;;5076295;28;20033;-38
2021/06/29 06:45:34;;;;;;;11.88;7.50;;;25.50;62.50;;;;;;5077055;28;20024;-38
2021/06/29 06:47:59;;;;;;;9.02;6.65;;;25.50;62.30;;;;;;5076171;28;20032;-38
2021/06/29 06:50:25;;;;;;;9.23;7.70;;;25.60;62.10;;;;;;5076740;28;20067;-40
2021/06/29 06:52:51;;;;;;;9.32;6.40;;;25.60;62.00;;;;;;5076061;28;20036;-40
2021/06/29 06:55:24;;;;;;;9.13;6.85;;;25.70;61.80;;;;;;5076719;28;20082;-40
2021/06/29 06:57:50;;;;;;;10.95;7.60;;;25.70;61.90;;;;;;5075823;28;20029;-41
2021/06/29 07:00:16;;;;;;;7.18;6.22;;;25.70;61.90;;;;;;5076017;28;20085;-40
2021/06/29 07:02:42;;;;;;;6.63;5.97;;;25.70;61.20;;;;;;5075631;28;20028;-40
2021/06/29 07:05:08;;;;;;;10.00;5.57;;;25.70;61.60;;;;;;5076408;28;20032;-38
2021/06/29 07:07:34;;;;;;;8.50;6.95;;;25.70;61.70;;;;;;5076041;28;20103;-39
2021/06/29 07:10:00;;;;;;;11.35;6.43;;;25.70;62.00;;;;;;5076205;28;20028;-38
2021/06/29 07:12:26;;;;;;;7.28;6.45;;;25.80;61.90;;;;;;5075486;28;20031;-38
2021/06/29 07:14:52;;;;;;;13.10;7.35;;;25.80;62.10;;;;;;5075513;28;20025;-38
2021/06/29 07:17:17;;;;;;;13.25;6.28;;;25.80;61.90;;;;;;5075604;28;20028;-38
2021/06/29 07:19:43;;;;;;;6.47;5.57;;;25.80;60.90;;;;;;5075482;28;20036;-38
2021/06/29 07:22:09;;;;;;;6.85;5.30;;;25.80;61.20;;;;;;5075383;28;20066;-38
2021/06/29 07:24:35;;;;;;;6.85;5.10;;;25.80;60.20;;;;;;5075866;28;20063;-39
2021/06/29 07:27:01;;;;;;;6.38;5.70;;;25.90;60.10;;;;;;5075816;28;20110;-38
2021/06/29 07:29:26;;;;;;;9.23;6.10;;;25.90;60.10;;;;;;5075758;28;20025;-38
2021/06/29 07:31:52;;;;;;;7.07;5.55;;;25.90;60.40;;;;;;5075739;28;20029;-38
2021/06/29 07:34:18;;;;;;;18.98;6.10;;;26.00;59.50;;;;;;5075976;28;20035;-39
2021/06/29 07:36:44;;;;;;;9.20;5.38;;;26.00;59.10;;;;;;5075473;28;20028;-39
2021/06/29 07:39:09;;;;;;;6.40;5.40;;;26.10;58.90;;;;;;5074512;28;20056;-39
2021/06/29 07:41:35;;;;;;;7.05;4.93;;;26.20;59.20;;;;;;5075428;28;20039;-38
2021/06/29 07:44:01;;;;;;;6.15;4.75;;;26.30;59.60;;;;;;5074168;28;20028;-39
2021/06/29 07:46:27;;;;;;;9.45;5.60;;;26.30;59.70;;;;;;5075649;28;20025;-38
2021/06/29 07:48:53;;;;;;;6.90;4.85;;;26.40;58.60;;;;;;5075367;28;20059;-38
2021/06/29 07:51:19;;;;;;;6.97;5.32;;;26.40;58.00;;;;;;5075429;28;20078;-38
2021/06/29 07:53:46;;;;;;;11.18;5.25;;;26.40;58.20;;;;;;5075287;28;20055;-38
2021/06/29 07:56:14;;;;;;;6.35;4.93;;;26.40;58.80;;;;;;5075774;28;20055;-38
2021/06/29 07:58:42;;;;;;;8.65;4.90;;;26.50;58.70;;;;;;5075263;28;20320;-39
2021/06/29 08:01:08;;;;;;;5.95;5.05;;;26.50;58.70;;;;;;5075558;28;20060;-39
2021/06/29 08:03:34;;;;;;;5.38;4.50;;;26.50;58.70;;;;;;5075023;28;20040;-38
2021/06/29 08:05:59;;;;;;;6.50;5.85;;;26.50;58.70;;;;;;5075823;28;20379;-38
2021/06/29 08:08:25;;;;;;;6.55;5.50;;;26.60;58.50;;;;;;5075069;28;20056;-39
2021/06/29 08:10:51;;;;;;;6.80;4.90;;;26.60;58.90;;;;;;5075904;28;20042;-39
2021/06/29 08:13:17;;;;;;;6.03;4.60;;;26.60;58.80;;;;;;5075303;28;20342;-38
2021/06/29 08:15:42;;;;;;;4.28;3.88;;;26.70;58.50;;;;;;5075652;28;20037;-38
2021/06/29 08:18:09;;;;;;;6.80;4.22;;;26.70;58.10;;;;;;5075000;28;20032;-38
2021/06/29 08:20:35;;;;;;;5.65;4.32;;;26.80;57.90;;;;;;5075464;28;20060;-39
2021/06/29 08:23:01;;;;;;;6.20;4.05;;;26.90;58.00;;;;;;5075153;28;20056;-38
2021/06/29 08:25:28;;;;;;;8.90;4.30;;;27.00;57.80;;;;;;5075351;28;20060;-38
2021/06/29 08:27:54;;;;;;;4.50;3.60;;;27.00;57.20;;;;;;5074605;28;20060;-38
2021/06/29 08:30:20;;;;;;;3.88;3.28;;;27.10;56.80;;;;;;5075747;28;20106;-39
2021/06/29 08:32:46;;;;;;;8.48;3.38;;;27.20;55.60;;;;;;5074973;28;20048;-39
2021/06/29 08:35:12;;;;;;;5.95;3.50;;;27.20;55.40;;;;;;5075483;28;20281;-38
2021/06/29 08:37:39;;;;;;;3.75;3.22;;;27.30;55.70;;;;;;5074473;28;20375;-38
2021/06/29 08:40:08;;;;;;;6.05;3.45;;;27.40;55.90;;;;;;5075036;28;20119;-39
2021/06/29 08:42:37;;;;;;;5.30;3.83;;;27.50;55.40;;;;;;5074617;28;20478;-38
2021/06/29 08:45:05;;;;;;;5.43;3.58;;;27.50;55.30;;;;;;5075432;28;20316;-40
2021/06/29 08:47:33;;;;;;;7.70;3.42;;;27.60;54.60;;;;;;5074495;28;20417;-38
2021/06/29 08:49:59;;;;;;;5.00;3.53;;;27.60;54.40;;;;;;5077432;28;20040;-39
2021/06/29 08:52:26;;;;;;;4.05;3.38;;;27.60;54.50;;;;;;5078317;28;20340;-38
2021/06/29 08:54:53;;;;;;;3.58;2.85;;;27.60;54.30;;;;;;5078742;28;20028;-38
2021/06/29 08:57:18;;;;;;;6.47;4.03;;;27.60;54.20;;;;;;5078379;28;20029;-39
2021/06/29 08:59:44;;;;;;;5.85;3.80;;;27.70;52.70;;;;;;5078493;28;20036;-38
2021/06/29 09:02:10;;;;;;;8.27;3.47;;;27.70;52.30;;;;;;5078015;28;20044;-39
2021/06/29 09:04:54;;;;;;;3.33;2.95;;;27.70;52.80;;;;;;5078626;28;20035;-38
2021/06/29 09:07:28;;;;;;;6.10;3.50;;;27.70;53.10;;;;;;5078314;28;20033;-39
2021/06/29 09:09:57;;;;;;;4.05;3.42;;;27.70;51.70;;;;;;5078515;28;20061;-38
2021/06/29 09:12:49;;;;;;;5.00;3.88;;;27.70;52.80;;;;;;5077901;28;20032;-38
2021/06/29 09:15:26;;;;;;;6.15;3.00;;;27.70;52.90;;;;;;5078395;28;20416;-38
2021/06/29 09:17:54;;;;;;;4.00;3.15;;;27.70;52.50;;;;;;5078018;28;20071;-38
2021/06/29 09:20:32;;;;;;;3.72;3.40;;;27.70;52.30;;;;;;5078256;28;20107;-39
2021/06/29 09:23:07;;;;;;;14.88;3.35;;;27.70;52.60;;;;;;5078203;28;20036;-39
2021/06/29 09:25:33;;;;;;;4.43;3.55;;;27.70;53.00;;;;;;5078004;28;20032;-39
2021/06/29 09:27:59;;;;;;;7.40;3.50;;;27.70;53.00;;;;;;5077597;28;20085;-38
2021/06/29 09:30:33;;;;;;;4.97;3.20;;;27.70;52.90;;;;;;5078426;28;20396;-39
2021/06/29 09:33:11;;;;;;;3.30;3.00;;;27.70;52.80;;;;;;5077825;28;20041;-38
2021/06/29 09:35:39;;;;;;;3.38;3.08;;;27.80;53.10;;;;;;5078210;28;20029;-38
2021/06/29 09:38:07;;;;;;;6.07;3.58;;;27.80;53.00;;;;;;5077454;28;20044;-38
2021/06/29 09:40:34;;;;;;;5.30;3.28;;;27.80;53.10;;;;;;5078098;28;20515;-38
2021/06/29 09:43:14;;;;;;;4.07;3.40;;;27.90;52.70;;;;;;5077459;28;20089;-39
2021/06/29 09:45:44;;;;;;;4.00;3.60;;;27.90;52.60;;;;;;5078065;28;20020;-38
2021/06/29 09:48:10;;;;;;;3.50;3.20;;;27.90;52.40;;;;;;5077639;28;20033;-39
2021/06/29 09:50:43;;;;;;;3.75;3.38;;;27.90;52.30;;;;;;5077962;28;20085;-39
2021/06/29 09:53:26;;;;;;;3.72;3.38;;;28.00;52.60;;;;;;5077507;28;20041;-39
2021/06/29 09:55:55;;;;;;;3.90;3.20;;;28.10;52.30;;;;;;5077355;28;20086;-39
2021/06/29 09:58:21;;;;;;;4.30;3.00;;;28.10;51.70;;;;;;5077086;28;20028;-39
2021/06/29 10:00:53;;;;;;;3.60;3.15;;;28.10;51.90;;;;;;5076782;28;20044;-38
2021/06/29 10:03:24;;;;;;;3.80;3.35;;;28.20;52.30;;;;;;5076970;28;20073;-38
2021/06/29 10:05:52;;;;;;;4.03;3.22;;;28.30;52.50;;;;;;5077048;28;20056;-38
2021/06/29 10:08:26;;;;;;;4.00;3.10;;;28.30;52.20;;;;;;5076926;28;20036;-38
2021/06/29 10:11:03;;;;;;;5.13;3.28;;;28.40;52.30;;;;;;5077722;28;20158;-39
2021/06/29 10:13:35;;;;;;;4.05;3.20;;;28.50;52.40;;;;;;5077176;28;20031;-39
2021/06/29 10:16:01;;;;;;;3.30;3.00;;;28.70;51.90;;;;;;5077551;28;20096;-38
2021/06/29 10:18:30;;;;;;;4.75;3.28;;;28.70;51.20;;;;;;5076794;28;20035;-38
2021/06/29 10:20:59;;;;;;;4.57;3.20;;;28.80;51.30;;;;;;5077458;28;20036;-39
2021/06/29 10:23:26;;;;;;;5.60;3.53;;;28.80;50.90;;;;;;5076891;28;20032;-39
2021/06/29 10:25:52;;;;;;;3.63;3.28;;;28.80;50.30;;;;;;5077392;28;20349;-39
2021/06/29 10:28:19;;;;;;;8.55;3.47;;;28.80;50.90;;;;;;5076876;28;20028;-39
2021/06/29 10:30:45;;;;;;;6.82;3.33;;;28.90;51.50;;;;;;5077194;28;20032;-39
2021/06/29 10:33:12;;;;;;;3.70;3.40;;;29.00;51.40;;;;;;5076479;28;20028;-39
2021/06/29 10:35:40;;;;;;;5.60;4.63;;;29.00;51.40;;;;;;5076702;28;20115;-39
2021/06/29 10:38:08;;;;;;;6.03;3.58;;;29.10;50.90;;;;;;5076071;28;20077;-38
2021/06/29 10:40:35;;;;;;;4.20;3.28;;;29.10;51.10;;;;;;5076808;28;20363;-38
2021/06/29 10:43:01;;;;;;;5.05;4.20;;;29.20;51.20;;;;;;5076376;28;20047;-38
2021/06/29 10:45:39;;;;;;;4.00;3.60;;;29.10;50.60;;;;;;5076589;28;20030;-39
2021/06/29 10:48:18;;;;;;;6.20;3.78;;;29.10;50.00;;;;;;5076429;28;20111;-39
2021/06/29 10:50:45;;;;;;;5.63;3.40;;;29.00;50.00;;;;;;5076738;28;20036;-38
2021/06/29 10:53:46;;;;;;;5.35;3.55;;;28.80;50.10;;;;;;5075950;28;20032;-39
2021/06/29 10:56:17;;;;;;;10.93;3.90;;;28.80;49.80;;;;;;5076312;28;20420;-39
2021/06/29 10:58:43;;;;;;;5.32;3.25;;;28.60;49.80;;;;;;5075822;28;20043;-38
2021/06/29 11:01:25;;;;;;;5.95;3.35;;;28.60;50.10;;;;;;5076252;28;20032;-38
2021/06/29 11:03:52;;;;;;;4.47;3.40;;;28.50;50.30;;;;;;5075857;28;20016;-38
2021/06/29 11:06:46;;;;;;;3.80;3.42;;;28.40;50.00;;;;;;5076320;28;20439;-38
2021/06/29 11:09:15;;;;;;;4.63;3.25;;;28.40;49.80;;;;;;5076134;28;20033;-38
2021/06/29 11:11:41;;;;;;;5.53;3.40;;;28.30;50.10;;;;;;5075905;28;20039;-38
2021/06/29 11:14:29;;;;;;;3.95;3.40;;;28.20;50.40;;;;;;5075556;28;20034;-38
2021/06/29 11:16:59;;;;;;;5.20;3.92;;;28.10;50.60;;;;;;5075678;28;20482;-38
2021/06/29 11:20:08;;;;;;;7.90;4.25;;;27.90;50.40;;;;;;5075714;28;20333;-39
2021/06/29 11:22:52;;;;;;;29.48;20.83;;;27.80;50.80;;;;;;5075595;28;20450;-38
2021/06/29 11:25:36;;;;;;;11.55;4.70;;;27.70;50.90;;;;;;5076321;28;20094;-39
2021/06/29 11:28:05;;;;;;;9.50;3.60;;;27.50;50.70;;;;;;5075787;28;20040;-38
2021/06/29 11:30:51;;;;;;;11.82;8.00;;;27.40;50.10;;;;;;5076246;28;20366;-38
2021/06/29 11:33:56;;;;;;;7.72;3.53;;;27.30;50.60;;;;;;5075191;28;20107;-38
2021/06/29 11:36:35;;;;;;;3.92;2.33;;;27.20;50.00;;;;;;5074581;28;20033;-38
2021/06/29 11:39:20;;;;;;;10.40;6.23;;;27.00;49.00;;;;;;5075633;28;20072;-39
2021/06/29 11:41:50;;;;;;;8.60;5.20;;;27.00;49.60;;;;;;5074212;28;20048;-39
2021/06/29 11:44:16;;;;;;;7.00;4.93;;;26.90;49.10;;;;;;5075705;28;20040;-38
2021/06/29 11:46:55;;;;;;;7.63;4.30;;;26.80;49.30;;;;;;5075350;28;20025;-39
2021/06/29 11:49:31;;;;;;;6.47;3.97;;;26.80;49.80;;;;;;5075316;28;20113;-39
2021/06/29 11:52:01;;;;;;;9.68;4.72;;;26.70;48.80;;;;;;5075482;28;20104;-38
2021/06/29 11:54:43;;;;;;;6.93;5.13;;;26.70;48.70;;;;;;5075915;28;20025;-39
2021/06/29 11:57:34;;;;;;;10.85;6.90;;;26.60;48.90;;;;;;5075522;28;20037;-38
2021/06/29 12:00:18;;;;;;;6.53;5.03;;;26.60;49.90;;;;;;5066375;28;20110;-38
2021/06/29 12:02:44;;;;;;;7.35;3.70;;;26.50;50.00;;;;;;5075190;28;20104;-39
2021/06/29 12:05:17;;;;;;;7.25;4.20;;;26.50;50.30;;;;;;5075391;28;20499;-38
2021/06/29 12:07:45;;;;;;;7.68;3.10;;;26.50;50.50;;;;;;5075266;28;20045;-38
2021/06/29 12:10:21;;;;;;;7.72;4.10;;;26.40;50.90;;;;;;5075351;28;20025;-38
2021/06/29 12:12:54;;;;;;;5.68;3.15;;;26.40;51.50;;;;;;5075172;28;20039;-38
2021/06/29 12:15:19;;;;;;;10.38;5.80;;;26.30;51.70;;;;;;5075452;28;20316;-38
2021/06/29 12:18:05;;;;;;;5.47;3.47;;;26.30;52.30;;;;;;5074847;28;20032;-39
2021/06/29 12:20:32;;;;;;;8.57;5.07;;;26.30;52.50;;;;;;5075005;28;20025;-38
2021/06/29 12:23:00;;;;;;;11.15;7.57;;;26.30;53.10;;;;;;5075068;28;20324;-39
2021/06/29 12:25:34;;;;;;;5.78;3.80;;;26.20;53.60;;;;;;5078211;28;20024;-38
2021/06/29 12:28:09;;;;;;;9.68;4.22;;;26.20;54.50;;;;;;5079206;28;20039;-38
2021/06/29 12:30:48;;;;;;;12.27;8.70;;;26.20;55.20;;;;;;5078079;28;20028;-39
2021/06/29 12:33:28;;;;;;;8.83;6.60;;;26.30;54.90;;;;;;5077954;28;20036;-38
2021/06/29 12:36:18;;;;;;;5.15;3.75;;;26.30;54.80;;;;;;5079187;28;20274;-38
2021/06/29 12:39:00;;;;;;;9.10;3.50;;;26.30;54.90;;;;;;5078039;28;20062;-39
2021/06/29 12:41:36;;;;;;;5.47;3.65;;;26.30;55.60;;;;;;5078875;28;20044;-38
2021/06/29 12:44:08;;;;;;;6.25;3.70;;;26.30;56.50;;;;;;5078483;28;20407;-39
2021/06/29 12:46:44;;;;;;;6.38;3.97;;;26.30;56.10;;;;;;5078801;28;20060;-38
2021/06/29 12:49:22;;;;;;;9.10;5.88;;;26.30;56.00;;;;;;5078499;28;20074;-39
2021/06/29 12:52:11;;;;;;;8.57;4.68;;;26.50;56.40;;;;;;5078595;28;20043;-39
2021/06/29 12:54:39;;;;;;;5.53;4.00;;;26.70;56.10;;;;;;5078695;28;20072;-37
2021/06/29 12:57:10;;;;;;;6.18;5.25;;;26.90;55.80;;;;;;5078284;28;20040;-38